Kanaranzi, MN (56146)

7:51 AM CDT on July 29, 2014 (GMT -0500)
Luverne (KLYV) Elev 1430 ft | 43.62 °N, 96.21 °W | Change Station

Current weather conditions updated 16 minutes ago

Clear
Clear
54 °F
Feels Like 54 °F
N
0
Wind Variable Wind from North

Today is forecast to be nearly the same temperature as yesterday.

Today
High -- | Low -- °F
--% Chance of Precip.
Yesterday
High -- | Low -- °F
Precip. -- in
6:10 AM 8:50 PM
Waxing Crescent, 6% visible
Pressure 30.22 in
Visibility 10.0 miles
Clouds Clear
Dew Point 50 °F
Humidity 88%
Rainfall 0.00 in
Snow Depth Not available.
UV 1 out of 12
Pollen 5.90 out of 12
Air Quality Not available.
Flu Activity Not available.
METAR KLYV 291235Z AUTO 00000KT 10SM CLR 12/10 A3022 RMK AO2

More Conditions Fewer Conditions

Pressure 30.22 in
Visibility 10.0 miles
Clouds Clear
Dew Point 50 °F
Humidity 88%
Rainfall 0.00 in
Snow Depth Not available.
UV 1 out of 12
Pollen 5.90 out of 12
Air Quality Not available.
Flu Activity Not available.
METAR KLYV 291235Z AUTO 00000KT 10SM CLR 12/10 A3022 RMK AO2

More Conditions Fewer Conditions

10-Day Weather Forecast

Almanac

Astronomy

Jul. 29, 2014 Rise Set
Actual Time 6:10 AM CDT 8:50 PM CDT
Civil Twilight 5:37 AM CDT 9:23 PM CDT
Nautical Twilight 4:56 AM CDT 10:04 PM CDT
Astronomical Twilight 4:08 AM CDT 10:51 PM CDT
Moon 8:54 AM CDT 9:56 PM CDT
Length of Visible Light 15h 45m
Length of Day
14h 39m
Tomorrow will be 2m 11s shorter.
Waxing Crescent, 6% of the Moon is Illuminated
Today
Waxing Crescent
Aug 3
First Quarter
Aug 10
Full
Aug 17
Last Quarter
Aug 25
New

Today's Extremes

State Highs State Lows

Community

WunderPhotos

Upload Photos

1,738,705 photos uploaded!

Nearby

Snow Depth

Station Depth Elevation
No new snow has been reported.

Earthquake Activity

City Distance Mag. Time & Date
No recent earthquake activity has been reported nearby.
Minimum magnitude displayed is 2.5.

Coastal Water Temperatures

Place Temperature
No Stations Reporting

Nearby Weather Stations

Station Location Temp. Windchill Dew Point Humidity Wind Precip. Elev Updated Type
Bremer Pond, Hardwick, MN 55.4 °F - 54 °F 94% NNW  at  0.0 mph 0.00 in / hr 1486 ft 7:50 AM CDT Normal
MesoWest SIBLEY , Sibley, IA 46 °F 46 °F - - North  at  - 0.00 in / hr 1530 ft 6:20 AM CDT MADIS
Split Rock Cr, Garretson, SD 55.0 °F - 53 °F 94% North  at  0.0 mph 0.00 in / hr 1470 ft 7:51 AM CDT Rapid Fire

Show More Stations Show Fewer Stations